createdAt,value
2023-04-11T00:00:16.132Z,2.03
2023-04-11T00:02:46.942Z,1.40
2023-04-11T00:05:15.126Z,1.40
2023-04-11T00:07:43.221Z,1.30
2023-04-11T00:10:11.888Z,1.07
2023-04-11T00:12:40.009Z,1.13
2023-04-11T00:15:09.553Z,1.27
2023-04-11T00:17:38.149Z,1.10
2023-04-11T00:20:10.932Z,1.27
2023-04-11T00:22:39.487Z,1.40
2023-04-11T00:25:08.690Z,1.20
2023-04-11T00:27:36.834Z,1.00
2023-04-11T00:30:06.086Z,1.00
2023-04-11T00:32:34.318Z,1.30
2023-04-11T00:35:02.931Z,1.30
2023-04-11T00:37:36.319Z,1.10
2023-04-11T00:40:06.849Z,1.30
2023-04-11T00:42:35.367Z,1.00
2023-04-11T00:45:04.218Z,1.03
2023-04-11T00:47:34.614Z,1.00
2023-04-11T00:50:03.123Z,1.50
2023-04-11T00:52:32.674Z,1.23
2023-04-11T00:55:03.864Z,1.30
2023-04-11T00:57:32.315Z,0.90
2023-04-11T01:00:03.435Z,1.27
2023-04-11T01:02:32.172Z,1.23
2023-04-11T01:05:00.925Z,1.30
2023-04-11T01:07:30.984Z,1.27
2023-04-11T01:10:01.467Z,1.37
2023-04-11T01:12:31.483Z,1.30
2023-04-11T01:14:59.996Z,1.40
2023-04-11T01:17:28.448Z,1.30
2023-04-11T01:19:56.610Z,1.30
2023-04-11T01:22:27.270Z,1.00
2023-04-11T01:24:57.127Z,1.07
2023-04-11T01:27:25.310Z,1.07
2023-04-11T01:29:53.416Z,1.40
2023-04-11T01:32:21.513Z,1.27
2023-04-11T01:34:53.652Z,1.07
2023-04-11T01:37:21.831Z,1.17
2023-04-11T01:39:49.968Z,1.10
2023-04-11T01:42:20.538Z,1.20
2023-04-11T01:44:49.675Z,1.17
2023-04-11T01:47:17.846Z,1.07
2023-04-11T01:49:45.978Z,1.13
2023-04-11T01:52:15.475Z,1.17
2023-04-11T01:54:43.562Z,1.10
2023-04-11T01:57:11.646Z,1.23
2023-04-11T01:59:41.040Z,1.20
2023-04-11T02:02:09.257Z,0.93
2023-04-11T02:04:37.412Z,0.70
2023-04-11T02:07:06.034Z,0.50
2023-04-11T02:09:34.085Z,0.53
2023-04-11T02:12:02.152Z,0.97
2023-04-11T02:14:42.800Z,0.70
2023-04-11T02:17:10.963Z,0.47
2023-04-11T02:19:41.052Z,0.70
2023-04-11T02:22:09.984Z,0.40
2023-04-11T02:24:38.582Z,0.40
2023-04-11T02:27:07.550Z,0.60
2023-04-11T02:29:42.301Z,0.77
2023-04-11T02:32:10.648Z,0.70
2023-04-11T02:34:39.638Z,0.53
2023-04-11T02:37:07.686Z,0.77
2023-04-11T02:39:35.836Z,0.60
2023-04-11T02:42:04.084Z,0.60
2023-04-11T02:44:33.597Z,0.70
2023-04-11T02:47:03.474Z,0.77
2023-04-11T02:49:32.132Z,0.60
2023-04-11T02:52:00.943Z,0.80
2023-04-11T02:54:29.105Z,0.70
2023-04-11T02:59:56.236Z,0.63
2023-04-11T03:02:31.779Z,0.80
2023-04-11T03:05:04.170Z,0.80
2023-04-11T03:07:34.985Z,0.80
2023-04-11T03:10:03.118Z,0.90
2023-04-11T03:12:31.536Z,0.60
2023-04-11T03:15:03.019Z,0.80
2023-04-11T03:17:32.536Z,0.60
2023-04-11T03:20:00.903Z,0.70
2023-04-11T03:22:28.988Z,0.80
2023-04-11T03:24:57.029Z,0.87
2023-04-11T03:27:25.368Z,0.60
2023-04-11T03:29:57.758Z,0.87
2023-04-11T03:32:34.211Z,0.70
2023-04-11T03:35:02.648Z,0.60
2023-04-11T03:37:30.732Z,0.70
2023-04-11T03:39:58.749Z,0.60
2023-04-11T03:42:27.165Z,0.97
2023-04-11T03:44:59.429Z,0.40
2023-04-11T03:47:27.554Z,0.83
2023-04-11T03:49:57.427Z,1.10
2023-04-11T03:52:25.616Z,0.60
2023-04-11T03:54:53.775Z,0.60
2023-04-11T03:57:26.780Z,0.70
2023-04-11T03:59:56.977Z,0.80
2023-04-11T04:02:25.389Z,0.67
2023-04-11T04:04:58.276Z,0.40
2023-04-11T04:07:39.027Z,1.07
2023-04-11T04:10:24.075Z,0.60
2023-04-11T04:12:54.550Z,1.07
2023-04-11T04:15:25.977Z,0.40
2023-04-11T04:17:55.571Z,0.57
2023-04-11T04:20:35.065Z,0.50
2023-04-11T04:23:05.501Z,0.40
2023-04-11T04:25:52.222Z,0.97
2023-04-11T04:28:25.992Z,0.50
2023-04-11T04:30:58.073Z,0.60
2023-04-11T04:33:32.877Z,0.60
2023-04-11T04:36:04.360Z,0.50
2023-04-11T04:38:38.418Z,0.60
2023-04-11T04:41:14.924Z,0.40
2023-04-11T04:43:46.550Z,0.30
2023-04-11T04:46:19.220Z,0.40
2023-04-11T04:48:51.302Z,0.30
2023-04-11T04:51:19.391Z,0.33
2023-04-11T04:53:48.796Z,0.30
2023-04-11T04:56:16.888Z,0.40
2023-04-11T04:58:47.990Z,0.43
2023-04-11T05:01:17.902Z,0.60
2023-04-11T05:03:58.773Z,0.70
2023-04-11T05:06:39.150Z,0.50
2023-04-11T05:09:08.559Z,0.50
2023-04-11T05:11:37.069Z,0.67
2023-04-11T05:14:05.337Z,0.50
2023-04-11T05:16:33.706Z,0.70
2023-04-11T05:19:02.029Z,0.60
2023-04-11T05:21:31.935Z,0.70
2023-04-11T05:24:00.046Z,0.67
2023-04-11T05:26:29.862Z,0.73
2023-04-11T05:28:57.933Z,0.73
2023-04-11T05:31:28.989Z,0.80
2023-04-11T05:33:57.884Z,0.60
2023-04-11T05:36:28.396Z,0.60
2023-04-11T05:38:56.869Z,0.90
2023-04-11T05:41:24.906Z,0.60
2023-04-11T05:43:54.484Z,0.20
2023-04-11T05:46:22.797Z,0.53
2023-04-11T05:48:50.999Z,0.50
2023-04-11T05:51:20.289Z,0.70
2023-04-11T05:53:48.253Z,0.40
2023-04-11T05:56:16.268Z,0.67
2023-04-11T05:58:44.790Z,0.60
2023-04-11T06:01:18.207Z,0.57
2023-04-11T06:03:47.071Z,0.70
2023-04-11T06:06:15.787Z,0.60
2023-04-11T06:08:44.142Z,0.50
2023-04-11T06:11:12.243Z,0.60
2023-04-11T06:13:40.260Z,0.87
2023-04-11T06:16:09.365Z,0.50
2023-04-11T06:18:38.736Z,0.70
2023-04-11T06:21:07.168Z,0.60
2023-04-11T06:23:35.189Z,0.50
2023-04-11T06:26:03.273Z,0.63
2023-04-11T06:28:31.337Z,0.60
2023-04-11T06:30:59.390Z,0.63
2023-04-11T06:33:27.391Z,0.90
2023-04-11T06:35:56.795Z,0.70
2023-04-11T06:38:24.996Z,0.50
2023-04-11T06:40:54.553Z,0.77
2023-04-11T06:43:22.629Z,0.80
2023-04-11T06:45:51.607Z,0.90
2023-04-11T06:48:20.936Z,1.50
2023-04-11T06:50:49.712Z,1.10
2023-04-11T06:53:19.070Z,1.10
2023-04-11T06:55:49.820Z,0.83
2023-04-11T06:58:18.018Z,1.33
2023-04-11T07:00:46.045Z,1.40
2023-04-11T07:03:14.177Z,0.80
2023-04-11T07:05:42.253Z,0.70
2023-04-11T07:08:10.452Z,0.97
2023-04-11T07:10:39.809Z,0.60
2023-04-11T07:13:07.844Z,0.70
2023-04-11T07:15:35.989Z,0.70
2023-04-11T07:18:04.067Z,0.77
2023-04-11T07:20:33.003Z,1.30
2023-04-11T07:23:01.147Z,0.93
2023-04-11T07:25:30.844Z,0.70
2023-04-11T07:28:01.517Z,0.90
2023-04-11T07:30:29.700Z,1.27
2023-04-11T07:32:57.684Z,1.30
2023-04-11T07:35:25.840Z,0.63
2023-04-11T07:37:53.877Z,1.10
2023-04-11T07:40:21.976Z,0.97
2023-04-11T07:42:49.973Z,0.70
2023-04-11T07:45:19.442Z,1.13
2023-04-11T07:47:47.668Z,1.10
2023-04-11T07:50:15.932Z,0.90
2023-04-11T07:52:44.061Z,1.20
2023-04-11T07:55:12.368Z,1.17
2023-04-11T07:57:40.404Z,1.20
2023-04-11T08:00:19.441Z,0.90
2023-04-11T08:02:49.028Z,1.13
2023-04-11T08:05:17.220Z,0.87
2023-04-11T08:07:45.307Z,1.50
2023-04-11T08:10:13.621Z,1.10
2023-04-11T08:13:05.356Z,1.20
2023-04-11T08:15:34.773Z,0.97
2023-04-11T08:18:05.278Z,1.00
2023-04-11T08:20:35.972Z,0.97
2023-04-11T08:23:07.882Z,0.87
2023-04-11T08:25:37.432Z,0.80
2023-04-11T08:28:06.495Z,1.13
2023-04-11T08:30:34.667Z,0.90
2023-04-11T08:33:04.249Z,1.27
2023-04-11T08:35:32.417Z,1.07
2023-04-11T08:38:00.435Z,1.07
2023-04-11T08:40:29.350Z,0.80
2023-04-11T08:43:00.795Z,0.80
2023-04-11T08:45:29.722Z,1.10
2023-04-11T08:47:57.771Z,1.13
2023-04-11T08:50:27.274Z,1.30
2023-04-11T08:52:55.805Z,1.10
2023-04-11T08:55:23.945Z,1.00
2023-04-11T08:57:53.550Z,1.00
2023-04-11T09:00:25.173Z,1.30
2023-04-11T09:02:58.911Z,1.13
2023-04-11T09:05:30.370Z,0.80
2023-04-11T09:08:00.945Z,1.37
2023-04-11T09:10:29.323Z,1.10
2023-04-11T09:12:58.484Z,1.40
2023-04-11T09:15:29.273Z,1.10
2023-04-11T09:18:00.606Z,1.20
2023-04-11T09:27:14.022Z,1.03
2023-04-11T09:29:45.291Z,1.03
2023-04-11T09:32:30.478Z,0.87
2023-04-11T09:35:16.556Z,1.30
2023-04-11T09:37:48.508Z,0.90
2023-04-11T09:40:19.311Z,0.90
2023-04-11T09:42:49.192Z,1.27
2023-04-11T09:45:23.939Z,1.00
2023-04-11T09:47:55.523Z,1.00
2023-04-11T09:50:24.647Z,1.50
2023-04-11T09:52:57.778Z,1.30
2023-04-11T09:55:27.296Z,1.50
2023-04-11T09:57:56.035Z,0.90
2023-04-11T10:00:29.342Z,0.83
2023-04-11T10:02:58.096Z,0.90
2023-04-11T10:05:27.892Z,0.97
2023-04-11T10:08:04.896Z,1.27
2023-04-11T10:10:33.732Z,1.20
2023-04-11T10:13:01.756Z,1.17
2023-04-11T10:15:30.181Z,1.67
2023-04-11T10:18:14.136Z,2.80
2023-04-11T10:20:47.370Z,2.63
2023-04-11T10:23:17.771Z,11.50
2023-04-11T10:25:56.519Z,6.40
2023-04-11T10:28:38.827Z,0.90
2023-04-11T10:31:09.858Z,2.53
2023-04-11T10:33:39.644Z,1.00
2023-04-11T10:36:11.070Z,2.47
2023-04-11T10:38:51.273Z,0.97
2023-04-11T10:41:31.813Z,2.80
2023-04-11T10:44:20.809Z,1.20
2023-04-11T10:46:51.852Z,1.70
2023-04-11T10:49:37.715Z,1.73
2023-04-11T10:52:20.917Z,1.03
2023-04-11T10:54:51.692Z,1.00
2023-04-11T10:57:21.063Z,1.00
2023-04-11T11:00:10.724Z,0.77
2023-04-11T11:02:40.874Z,0.87
2023-04-11T11:05:25.546Z,0.97
2023-04-11T11:07:54.887Z,1.37
2023-04-11T11:10:42.827Z,1.53
2023-04-11T11:13:14.202Z,1.03
2023-04-11T11:15:50.018Z,0.93
2023-04-11T11:18:19.014Z,1.47
2023-04-11T11:20:47.118Z,0.93
2023-04-11T11:23:15.430Z,1.07
2023-04-11T11:25:54.827Z,1.10
2023-04-11T11:28:23.222Z,1.13
2023-04-11T11:30:54.866Z,0.80
2023-04-11T11:33:26.456Z,1.10
2023-04-11T11:35:58.250Z,0.60
2023-04-11T11:38:29.005Z,0.90
2023-04-11T11:40:59.999Z,1.13
2023-04-11T11:43:28.940Z,0.90
2023-04-11T11:46:12.106Z,1.23
2023-04-11T11:48:40.287Z,1.13
2023-04-11T11:51:08.629Z,1.00
2023-04-11T11:53:37.004Z,1.23
2023-04-11T11:56:17.007Z,1.10
2023-04-11T11:58:45.960Z,1.03
2023-04-11T12:01:17.121Z,1.20
2023-04-11T12:03:48.212Z,1.70
2023-04-11T12:06:17.782Z,1.73
2023-04-11T12:08:50.234Z,1.60
2023-04-11T12:11:19.805Z,1.70
2023-04-11T12:13:54.796Z,1.13
2023-04-11T12:16:24.156Z,0.90
2023-04-11T12:18:52.405Z,0.73
2023-04-11T12:21:20.657Z,0.93
2023-04-11T12:23:48.809Z,1.10
2023-04-11T12:26:17.675Z,1.10
2023-04-11T12:28:47.021Z,1.03
2023-04-11T12:31:15.731Z,1.10
2023-04-11T12:33:43.984Z,1.43
2023-04-11T12:36:13.712Z,1.00
2023-04-11T12:38:42.172Z,1.13
2023-04-11T12:43:42.333Z,1.00
2023-04-11T12:46:11.690Z,1.00
2023-04-11T12:48:42.434Z,1.20
2023-04-11T12:51:10.574Z,1.00
2023-04-11T12:53:38.667Z,0.80
2023-04-11T12:56:08.210Z,1.00
2023-04-11T12:58:36.346Z,1.23
2023-04-11T13:01:05.724Z,1.70
2023-04-11T13:03:35.558Z,1.93
2023-04-11T13:06:03.678Z,1.33
2023-04-11T13:08:31.752Z,2.17
2023-04-11T13:10:59.851Z,1.53
2023-04-11T13:13:27.881Z,1.00
2023-04-11T13:15:56.386Z,1.00
2023-04-11T13:18:24.478Z,1.00
2023-04-11T13:20:53.931Z,0.97
2023-04-11T13:23:22.035Z,1.10
2023-04-11T13:25:50.427Z,0.90
2023-04-11T13:28:18.632Z,1.00
2023-04-11T13:30:46.692Z,0.70
2023-04-11T13:33:14.787Z,1.03
2023-04-11T13:35:42.971Z,0.90
2023-04-11T13:38:12.840Z,1.47
2023-04-11T13:40:42.660Z,0.80
2023-04-11T13:43:11.056Z,1.00
2023-04-11T13:45:39.136Z,0.93
2023-04-11T13:48:07.241Z,1.00
2023-04-11T13:50:35.901Z,1.10
2023-04-11T13:53:04.202Z,1.23
2023-04-11T13:55:33.605Z,1.13
2023-04-11T13:58:02.051Z,0.93
2023-04-11T14:00:30.112Z,0.73
2023-04-11T14:02:58.354Z,1.30
2023-04-11T14:05:27.078Z,1.03
2023-04-11T14:07:55.071Z,1.10
2023-04-11T14:10:23.073Z,1.20
2023-04-11T14:12:52.585Z,0.90
2023-04-11T14:15:21.897Z,1.10
2023-04-11T14:17:50.047Z,0.70
2023-04-11T14:20:18.321Z,0.80
2023-04-11T14:22:46.995Z,1.10
2023-04-11T14:25:15.695Z,1.17
2023-04-11T14:27:44.350Z,1.00
2023-04-11T14:30:14.742Z,0.80
2023-04-11T14:32:42.849Z,1.13
2023-04-11T14:35:11.171Z,0.90
2023-04-11T14:37:39.292Z,0.80
2023-04-11T14:40:10.696Z,0.87
2023-04-11T14:42:39.589Z,1.10
2023-04-11T14:45:08.950Z,0.90
2023-04-11T14:47:39.774Z,1.17
2023-04-11T14:50:09.496Z,0.67
2023-04-11T14:52:37.677Z,1.37
2023-04-11T14:55:07.232Z,1.10
2023-04-11T14:57:49.797Z,1.20
2023-04-11T15:00:43.616Z,0.83
2023-04-11T15:03:13.327Z,1.10
2023-04-11T15:05:41.407Z,1.13
2023-04-11T15:08:09.844Z,1.30
2023-04-11T15:10:37.892Z,1.20
2023-04-11T15:13:07.033Z,1.10
2023-04-11T15:15:35.258Z,1.13
2023-04-11T15:18:30.208Z,2.10
2023-04-11T15:21:00.591Z,0.97
2023-04-11T15:23:29.024Z,1.70
2023-04-11T15:25:59.386Z,1.23
2023-04-11T15:28:32.285Z,0.90
2023-04-11T15:31:00.777Z,1.13
2023-04-11T15:33:31.548Z,0.97
2023-04-11T15:36:00.741Z,1.30
2023-04-11T15:38:29.802Z,1.20
2023-04-11T15:41:00.253Z,1.00
2023-04-11T15:43:29.175Z,1.00
2023-04-11T15:45:57.261Z,1.00
2023-04-11T15:48:25.328Z,0.90
2023-04-11T15:50:54.699Z,0.73
2023-04-11T15:53:23.070Z,0.77
2023-04-11T15:55:51.241Z,1.17
2023-04-11T15:58:19.397Z,1.00
2023-04-11T16:00:47.378Z,0.97
2023-04-11T16:03:16.587Z,1.10
2023-04-11T16:05:45.618Z,1.00
2023-04-11T16:08:16.832Z,1.20
2023-04-11T16:10:44.946Z,1.00
2023-04-11T16:13:12.957Z,1.20
2023-04-11T16:15:40.992Z,0.70
2023-04-11T16:18:09.206Z,1.33
2023-04-11T16:20:37.292Z,1.23
2023-04-11T16:23:05.657Z,1.30
2023-04-11T16:25:35.085Z,0.80
2023-04-11T16:28:03.427Z,1.10
2023-04-11T16:30:31.655Z,0.90
2023-04-11T16:32:59.730Z,1.00
2023-04-11T16:35:27.925Z,1.40
2023-04-11T16:37:56.118Z,0.97
2023-04-11T16:40:24.173Z,0.90
2023-04-11T16:42:53.871Z,0.80
2023-04-11T16:45:22.150Z,1.07
2023-04-11T16:47:50.417Z,0.80
2023-04-11T16:50:18.624Z,1.17
2023-04-11T16:52:46.708Z,1.00
2023-04-11T16:55:14.974Z,0.90
2023-04-11T16:57:43.223Z,1.30
2023-04-11T17:00:16.925Z,1.90
2023-04-11T17:02:45.492Z,1.80
2023-04-11T17:05:14.212Z,2.00
2023-04-11T17:07:43.622Z,2.37
2023-04-11T17:10:12.537Z,1.17
2023-04-11T17:12:40.795Z,1.40
2023-04-11T17:15:09.746Z,1.23
2023-04-11T17:17:39.188Z,1.07
2023-04-11T17:20:10.105Z,0.90
2023-04-11T17:22:41.305Z,1.20
2023-04-11T17:25:10.279Z,1.00
2023-04-11T17:27:38.428Z,0.83
2023-04-11T17:30:09.455Z,0.87
2023-04-11T17:32:39.166Z,0.93
2023-04-11T17:35:08.276Z,1.23
2023-04-11T17:37:36.997Z,0.90
2023-04-11T17:40:11.772Z,1.27
2023-04-11T17:42:40.095Z,1.10
2023-04-11T17:45:17.784Z,1.30
2023-04-11T17:47:48.367Z,1.13
2023-04-11T17:50:18.112Z,1.00
2023-04-11T17:52:47.250Z,1.57
2023-04-11T17:55:18.891Z,1.50
2023-04-11T17:57:48.888Z,1.60
2023-04-11T18:00:23.034Z,1.13
2023-04-11T18:02:57.492Z,1.10
2023-04-11T18:05:28.211Z,1.17
2023-04-11T18:07:58.927Z,1.17
2023-04-11T18:10:29.164Z,1.40
2023-04-11T18:12:59.310Z,1.27
2023-04-11T18:15:28.059Z,1.60
2023-04-11T18:17:57.518Z,1.47
2023-04-11T18:20:25.990Z,1.30
2023-04-11T18:22:55.947Z,0.93
2023-04-11T18:25:24.385Z,1.70
2023-04-11T18:27:52.595Z,1.37
2023-04-11T18:30:20.885Z,1.57
2023-04-11T18:32:51.443Z,1.80
2023-04-11T18:35:21.649Z,1.93
2023-04-11T18:37:49.836Z,2.00
2023-04-11T18:40:19.226Z,2.30
2023-04-11T18:42:51.813Z,2.20
2023-04-11T18:45:21.919Z,2.00
2023-04-11T18:47:50.852Z,1.97
2023-04-11T18:50:20.939Z,3.07
2023-04-11T18:52:52.964Z,3.60
2023-04-11T18:55:48.938Z,5.17
2023-04-11T18:58:19.053Z,3.90
2023-04-11T19:00:49.250Z,3.20
2023-04-11T19:03:17.952Z,3.33
2023-04-11T19:05:48.186Z,3.33
2023-04-11T19:08:17.926Z,4.43
2023-04-11T19:10:46.116Z,4.23
2023-04-11T19:13:14.180Z,4.67
2023-04-11T19:15:43.261Z,3.50
2023-04-11T19:18:11.723Z,2.17
2023-04-11T19:20:40.572Z,2.10
2023-04-11T19:23:09.985Z,2.00
2023-04-11T19:25:38.042Z,1.23
2023-04-11T19:28:06.639Z,1.70
2023-04-11T19:30:34.976Z,1.80
2023-04-11T19:33:03.784Z,2.50
2023-04-11T19:35:32.299Z,2.00
2023-04-11T19:38:02.320Z,2.20
2023-04-11T19:40:32.145Z,2.67
2023-04-11T19:43:00.245Z,2.70
2023-04-11T19:45:29.934Z,2.57
2023-04-11T19:48:00.125Z,2.07
2023-04-11T19:50:28.272Z,2.07
2023-04-11T19:52:57.695Z,2.70
2023-04-11T19:55:27.161Z,2.97
2023-04-11T19:57:56.544Z,2.57
2023-04-11T20:00:26.666Z,1.63
2023-04-11T20:02:56.152Z,1.33
2023-04-11T20:05:25.219Z,1.27
2023-04-11T20:07:53.236Z,1.40
2023-04-11T20:10:21.381Z,1.57
2023-04-11T20:12:49.423Z,1.53
2023-04-11T20:15:18.834Z,1.20
2023-04-11T20:17:46.946Z,1.33
2023-04-11T20:20:15.315Z,1.50
2023-04-11T20:22:45.258Z,1.33
2023-04-11T20:25:13.800Z,1.47
2023-04-11T20:27:43.742Z,1.40
2023-04-11T20:30:13.892Z,1.27
2023-04-11T20:32:43.873Z,1.60
2023-04-11T20:35:12.896Z,1.33
2023-04-11T20:37:43.463Z,1.63
2023-04-11T20:40:14.366Z,1.60
2023-04-11T20:42:43.072Z,1.50
2023-04-11T20:45:15.625Z,1.63
2023-04-11T20:47:46.654Z,1.57
2023-04-11T20:50:17.503Z,1.60
2023-04-11T20:52:47.725Z,1.80
2023-04-11T20:55:15.807Z,1.70
2023-04-11T20:57:44.612Z,2.07
2023-04-11T21:00:14.707Z,5.30
2023-04-11T21:02:46.284Z,4.37
2023-04-11T21:05:18.911Z,3.40
2023-04-11T21:07:47.350Z,2.17
2023-04-11T21:10:16.187Z,1.77
2023-04-11T21:12:51.058Z,2.00
2023-04-11T21:15:20.277Z,1.60
2023-04-11T21:17:50.130Z,1.80
2023-04-11T21:20:19.439Z,1.80
2023-04-11T21:22:48.684Z,1.53
2023-04-11T21:25:17.446Z,1.70
2023-04-11T21:27:45.793Z,1.90
2023-04-11T21:30:15.281Z,1.50
2023-04-11T21:32:43.503Z,1.50
2023-04-11T21:35:13.314Z,2.20
2023-04-11T21:37:41.382Z,1.50
2023-04-11T21:40:10.576Z,1.87
2023-04-11T21:42:39.030Z,1.70
2023-04-11T21:45:09.229Z,1.70
2023-04-11T21:47:37.286Z,1.30
2023-04-11T21:50:06.354Z,1.43
2023-04-11T21:52:35.947Z,1.90
2023-04-11T21:55:05.906Z,1.73
2023-04-11T21:57:36.515Z,1.40
2023-04-11T22:00:05.734Z,1.87
2023-04-11T22:02:40.788Z,1.30
2023-04-11T22:05:09.887Z,2.03
2023-04-11T22:07:47.079Z,1.57
2023-04-11T22:10:15.531Z,1.97
2023-04-11T22:12:45.584Z,2.00
2023-04-11T22:15:14.281Z,1.67
2023-04-11T22:17:43.629Z,1.80
2023-04-11T22:20:13.417Z,2.03
2023-04-11T22:22:44.708Z,1.73
2023-04-11T22:25:13.619Z,1.60
2023-04-11T22:27:41.615Z,1.77
2023-04-11T22:30:11.104Z,1.57
2023-04-11T22:32:39.241Z,1.47
2023-04-11T22:35:09.247Z,1.73
2023-04-11T22:37:37.508Z,1.90
2023-04-11T22:40:11.664Z,1.53
2023-04-11T22:42:39.815Z,1.50
2023-04-11T22:45:09.299Z,2.10
2023-04-11T22:47:38.138Z,2.03
2023-04-11T22:50:07.207Z,1.87
2023-04-11T22:52:35.526Z,2.10
2023-04-11T22:55:04.609Z,1.97
2023-04-11T22:57:35.187Z,2.20
2023-04-11T23:00:06.964Z,2.10
2023-04-11T23:02:37.412Z,2.00
2023-04-11T23:05:07.816Z,2.00
2023-04-11T23:07:35.989Z,2.27
2023-04-11T23:10:06.026Z,2.07
2023-04-11T23:12:35.360Z,1.97
2023-04-11T23:15:04.687Z,2.10
2023-04-11T23:17:33.108Z,1.90
2023-04-11T23:20:01.184Z,2.00
2023-04-11T23:22:29.498Z,1.80
2023-04-11T23:24:57.803Z,1.70
2023-04-11T23:27:25.780Z,1.60
2023-04-11T23:29:55.328Z,1.50
2023-04-11T23:32:23.627Z,1.53
2023-04-11T23:34:51.654Z,1.63
2023-04-11T23:37:19.821Z,1.73
2023-04-11T23:39:47.837Z,1.57
2023-04-11T23:42:16.085Z,1.97
2023-04-11T23:44:44.185Z,2.17
2023-04-11T23:47:14.009Z,1.87
2023-04-11T23:49:42.231Z,1.60
2023-04-11T23:52:11.095Z,2.20
2023-04-11T23:54:39.222Z,1.43
2023-04-11T23:57:07.383Z,1.60
2023-04-11T23:59:36.031Z,1.80
